createdAt,value
2023-05-23T04:02:08.907Z,12.35
2023-05-23T05:10:38.937Z,11.63
2023-05-23T05:15:29.643Z,12.27
2023-05-23T05:20:22.066Z,13.67
2023-05-23T05:25:15.894Z,12.63
2023-05-23T05:30:07.662Z,12.23
2023-05-23T05:35:08.011Z,13.73
2023-05-23T05:39:59.444Z,13.20
2023-05-23T05:44:53.546Z,14.20
2023-05-23T05:49:43.984Z,11.82
2023-05-23T05:54:34.037Z,13.63
2023-05-23T05:59:24.202Z,14.77
2023-05-23T06:04:17.044Z,14.83
2023-05-23T06:09:07.771Z,16.02
2023-05-23T06:13:58.892Z,13.73
2023-05-23T06:18:49.197Z,16.23
2023-05-23T06:23:41.973Z,14.38
2023-05-23T06:28:32.370Z,17.52
2023-05-23T06:33:23.210Z,13.07
2023-05-23T06:38:17.653Z,11.48
2023-05-23T06:43:11.311Z,11.13
2023-05-23T06:48:23.933Z,10.57
2023-05-23T06:53:15.325Z,13.43
2023-05-23T06:58:07.143Z,13.20
2023-05-23T07:03:04.001Z,9.63
2023-05-23T07:07:54.249Z,8.00
2023-05-23T07:12:44.249Z,8.30
2023-05-23T07:17:36.544Z,8.32
2023-05-23T07:22:29.514Z,10.43
2023-05-23T07:27:19.913Z,8.63
2023-05-23T07:32:11.355Z,6.40
2023-05-23T07:37:01.423Z,8.30
2023-05-23T07:42:00.835Z,8.25
2023-05-23T07:46:51.412Z,7.00
2023-05-23T07:51:42.099Z,9.27
2023-05-23T07:56:33.524Z,5.13
2023-05-23T08:01:26.193Z,11.27
2023-05-23T08:06:27.041Z,7.93
2023-05-23T08:11:22.333Z,7.57
2023-05-23T08:16:14.699Z,8.80
2023-05-23T08:21:08.664Z,9.07
2023-05-23T08:25:59.187Z,9.23
2023-05-23T08:30:49.949Z,7.78
2023-05-23T08:35:42.184Z,11.43
2023-05-23T08:40:38.858Z,9.60
2023-05-23T08:45:35.086Z,8.83
2023-05-23T08:50:26.705Z,8.02
2023-05-23T08:55:20.478Z,7.55
2023-05-23T09:00:16.882Z,7.97
2023-05-23T09:05:07.859Z,7.78
2023-05-23T09:09:58.446Z,7.85
2023-05-23T09:14:48.604Z,7.17
2023-05-23T09:19:44.282Z,8.55
2023-05-23T09:24:47.836Z,7.60
2023-05-23T09:29:41.664Z,12.52
2023-05-23T09:34:32.037Z,12.05
2023-05-23T09:39:24.618Z,7.53
2023-05-23T09:44:14.756Z,10.02
2023-05-23T09:49:04.687Z,9.20
2023-05-23T09:53:55.510Z,5.82
2023-05-23T09:58:49.608Z,5.95
2023-05-23T10:03:45.613Z,5.95
2023-05-23T10:08:41.955Z,9.40
2023-05-23T10:13:33.196Z,11.18
